createdAt,value
2022-11-14T00:01:43.076Z,81.16
2022-11-14T00:05:04.804Z,81.18
2022-11-14T00:08:24.899Z,81.24
2022-11-14T00:11:45.216Z,81.23
2022-11-14T00:15:06.122Z,81.27
2022-11-14T00:18:27.058Z,81.29
2022-11-14T00:21:47.300Z,81.27
2022-11-14T00:25:07.634Z,81.25
2022-11-14T00:28:27.765Z,81.22
2022-11-14T00:31:47.996Z,81.21
2022-11-14T00:35:08.859Z,81.17
2022-11-14T00:38:29.305Z,81.17
2022-11-14T00:41:50.446Z,81.21
2022-11-14T00:45:11.176Z,81.21
2022-11-14T00:48:31.602Z,81.25
2022-11-14T00:51:52.236Z,81.25
2022-11-14T00:55:12.367Z,81.28
2022-11-14T00:58:33.153Z,81.28
2022-11-14T01:01:57.664Z,81.29
2022-11-14T01:05:18.453Z,81.29
2022-11-14T01:08:38.603Z,81.32
2022-11-14T01:11:58.727Z,81.30
2022-11-14T01:15:19.174Z,81.30
2022-11-14T01:18:40.105Z,81.25
2022-11-14T01:22:04.800Z,81.30
2022-11-14T01:25:26.511Z,81.34
2022-11-14T01:28:47.043Z,81.32
2022-11-14T01:32:07.128Z,81.31
2022-11-14T01:35:27.159Z,81.33
2022-11-14T01:38:51.837Z,81.31
2022-11-14T01:42:12.084Z,81.33
2022-11-14T01:45:51.140Z,81.35
2022-11-14T01:49:22.262Z,81.34
2022-11-14T01:52:42.598Z,81.35
2022-11-14T01:56:05.135Z,81.34
2022-11-14T01:59:30.428Z,81.35
2022-11-14T02:02:51.282Z,81.25
2022-11-14T02:06:14.596Z,81.19
2022-11-14T02:09:37.193Z,81.11
2022-11-14T02:12:57.440Z,81.12
2022-11-14T02:16:17.573Z,81.17
2022-11-14T02:19:44.774Z,81.21
2022-11-14T02:23:05.174Z,81.25
2022-11-14T02:26:25.354Z,81.28
2022-11-14T02:29:45.412Z,81.28
2022-11-14T02:33:12.698Z,81.28
2022-11-14T02:36:33.078Z,81.29
2022-11-14T02:39:53.065Z,81.32
2022-11-14T02:43:13.277Z,81.37
2022-11-14T02:46:34.667Z,81.42
2022-11-14T02:49:54.659Z,81.48
2022-11-14T02:53:14.712Z,81.55
2022-11-14T02:56:34.891Z,81.54
2022-11-14T02:59:55.447Z,81.60
2022-11-14T03:03:15.767Z,81.60
2022-11-14T03:06:36.175Z,81.63
2022-11-14T03:09:56.413Z,81.58
2022-11-14T03:13:16.343Z,81.53
2022-11-14T03:16:36.792Z,81.55
2022-11-14T03:19:57.492Z,81.55
2022-11-14T03:23:17.802Z,81.58
2022-11-14T03:26:38.055Z,81.59
2022-11-14T03:29:58.138Z,81.53
2022-11-14T03:33:18.557Z,81.50
2022-11-14T03:36:39.026Z,81.46
2022-11-14T03:39:59.651Z,81.41
2022-11-14T03:43:21.031Z,81.36
2022-11-14T03:46:41.334Z,81.33
2022-11-14T03:50:01.397Z,81.36
2022-11-14T03:53:22.524Z,81.42
2022-11-14T03:56:42.489Z,81.39
2022-11-14T04:00:03.709Z,81.37
2022-11-14T04:03:24.403Z,81.35
2022-11-14T04:06:45.406Z,81.35
2022-11-14T04:10:06.260Z,81.36
2022-11-14T04:13:26.434Z,81.34
2022-11-14T04:16:46.881Z,81.28
2022-11-14T04:20:07.179Z,81.38
2022-11-14T04:23:27.647Z,81.44
2022-11-14T04:26:47.877Z,81.48
2022-11-14T04:30:08.643Z,81.50
2022-11-14T04:33:29.127Z,81.48
2022-11-14T04:36:52.245Z,81.47
2022-11-14T04:40:12.090Z,81.52
2022-11-14T04:43:32.180Z,81.50
2022-11-14T04:46:52.240Z,81.50
2022-11-14T04:50:12.830Z,81.49
2022-11-14T04:53:32.806Z,81.37
2022-11-14T04:56:53.193Z,81.32
2022-11-14T05:00:13.916Z,81.22
2022-11-14T05:03:34.301Z,81.17
2022-11-14T05:06:54.937Z,81.11
2022-11-14T05:10:15.222Z,81.07
2022-11-14T05:13:35.465Z,81.05
2022-11-14T05:16:55.487Z,80.98
2022-11-14T05:20:15.698Z,80.95
2022-11-14T05:23:36.152Z,80.94
2022-11-14T05:26:55.976Z,80.96
2022-11-14T05:30:16.335Z,80.97
2022-11-14T05:33:36.845Z,80.97
2022-11-14T05:36:57.176Z,81.01
2022-11-14T05:40:18.632Z,81.02
2022-11-14T05:43:40.048Z,81.05
2022-11-14T05:47:00.482Z,81.03
2022-11-14T05:50:21.302Z,80.97
2022-11-14T05:53:41.459Z,80.93
2022-11-14T05:57:02.360Z,80.98
2022-11-14T06:00:22.723Z,81.03
2022-11-14T06:03:45.619Z,81.07
2022-11-14T06:07:05.536Z,81.01
2022-11-14T06:10:26.162Z,80.98
2022-11-14T06:13:47.382Z,80.92
2022-11-14T06:17:07.597Z,80.94
2022-11-14T06:20:27.580Z,80.97
2022-11-14T06:23:49.267Z,80.97
2022-11-14T06:27:09.441Z,80.97
2022-11-14T06:30:29.588Z,80.99
2022-11-14T06:33:49.755Z,81.02
2022-11-14T06:37:10.057Z,81.07
2022-11-14T06:40:29.998Z,81.08
2022-11-14T06:43:53.099Z,81.13
2022-11-14T06:47:13.380Z,81.19
2022-11-14T06:50:33.254Z,81.20
2022-11-14T06:53:53.625Z,81.17
2022-11-14T06:57:13.863Z,81.11
2022-11-14T07:00:34.490Z,81.03
2022-11-14T07:03:58.062Z,81.07
2022-11-14T07:07:18.253Z,81.22
2022-11-14T07:10:38.736Z,81.25
2022-11-14T07:14:00.516Z,81.29
2022-11-14T07:17:21.354Z,81.35
2022-11-14T07:20:41.524Z,81.38
2022-11-14T07:24:01.963Z,81.37
2022-11-14T07:27:22.028Z,81.46
2022-11-14T07:30:42.129Z,81.51
2022-11-14T07:34:02.552Z,81.61
2022-11-14T07:37:23.689Z,81.71
2022-11-14T07:40:59.306Z,81.78
2022-11-14T07:44:20.351Z,81.88
2022-11-14T07:47:40.868Z,82.03
2022-11-14T07:51:03.547Z,82.10
2022-11-14T07:54:24.053Z,82.13
2022-11-14T07:57:48.969Z,82.14
2022-11-14T08:01:11.990Z,82.16
2022-11-14T08:04:32.542Z,82.19
2022-11-14T08:07:53.185Z,82.14
2022-11-14T08:11:17.109Z,82.11
2022-11-14T08:14:43.800Z,82.21
2022-11-14T08:18:05.007Z,82.29
2022-11-14T08:21:25.601Z,82.43
2022-11-14T08:24:46.358Z,82.45
2022-11-14T08:28:07.017Z,82.45
2022-11-14T08:31:28.838Z,82.43
2022-11-14T08:34:50.815Z,82.42
2022-11-14T08:38:11.173Z,82.47
2022-11-14T08:41:31.565Z,82.49
2022-11-14T08:44:52.449Z,82.54
2022-11-14T08:48:12.956Z,82.66
2022-11-14T08:51:35.310Z,82.66
2022-11-14T08:54:56.778Z,82.72
2022-11-14T08:58:17.427Z,82.74
2022-11-14T09:01:37.942Z,82.79
2022-11-14T09:04:58.495Z,82.87
2022-11-14T09:08:19.240Z,82.82
2022-11-14T09:11:39.873Z,82.97
2022-11-14T09:15:00.462Z,82.97
2022-11-14T09:18:20.777Z,82.91
2022-11-14T09:21:41.407Z,82.79
2022-11-14T09:25:02.534Z,82.71
2022-11-14T09:28:23.648Z,82.66
2022-11-14T09:31:44.071Z,82.66
2022-11-14T09:35:04.714Z,82.69
2022-11-14T09:38:25.220Z,82.73
2022-11-14T09:42:03.437Z,82.79
2022-11-14T09:45:24.924Z,82.91
2022-11-14T09:48:45.559Z,82.82
2022-11-14T09:52:18.462Z,82.73
2022-11-14T09:55:38.691Z,82.71
2022-11-14T09:58:59.015Z,82.67
2022-11-14T10:02:28.487Z,82.71
2022-11-14T10:06:18.349Z,82.80
2022-11-14T10:09:49.674Z,83.19
2022-11-14T10:13:47.102Z,83.22
2022-11-14T10:17:10.610Z,83.34
2022-11-14T10:20:53.508Z,83.46
2022-11-14T10:24:32.493Z,83.44
2022-11-14T10:28:10.685Z,83.37
2022-11-14T10:31:48.850Z,83.22
2022-11-14T10:35:22.454Z,83.18
2022-11-14T10:39:01.128Z,83.04
2022-11-14T10:42:40.791Z,82.97
2022-11-14T10:46:50.678Z,82.91
2022-11-14T10:50:27.361Z,82.94
2022-11-14T10:54:08.979Z,82.85
2022-11-14T10:57:33.578Z,82.81
2022-11-14T11:01:18.516Z,82.85
2022-11-14T11:04:42.031Z,83.02
2022-11-14T11:08:41.847Z,83.01
2022-11-14T11:12:04.114Z,82.90
2022-11-14T11:15:31.960Z,82.87
2022-11-14T11:18:52.613Z,83.06
2022-11-14T11:22:39.208Z,83.20
2022-11-14T11:26:05.133Z,83.27
2022-11-14T11:29:28.138Z,83.28
2022-11-14T11:32:48.312Z,83.25
2022-11-14T11:36:18.841Z,83.31
2022-11-14T11:39:54.407Z,83.26
2022-11-14T11:43:40.663Z,83.18
2022-11-14T11:47:07.662Z,83.20
2022-11-14T11:50:29.586Z,83.23
2022-11-14T11:54:18.037Z,83.21
2022-11-14T11:57:43.325Z,83.14
2022-11-14T12:01:03.628Z,83.14
2022-11-14T12:04:24.254Z,83.12
2022-11-14T12:07:57.897Z,83.15
2022-11-14T12:11:21.357Z,83.09
2022-11-14T12:14:55.361Z,83.06
2022-11-14T12:18:44.604Z,83.11
2022-11-14T12:22:37.601Z,83.16
2022-11-14T12:26:00.439Z,83.19
2022-11-14T12:29:46.100Z,83.19
2022-11-14T12:33:35.171Z,83.18
2022-11-14T12:36:55.647Z,83.26
2022-11-14T12:40:28.146Z,83.29
2022-11-14T12:43:48.403Z,83.35
2022-11-14T12:47:08.884Z,83.41
2022-11-14T12:50:42.043Z,83.37
2022-11-14T12:54:02.383Z,83.42
2022-11-14T12:57:48.105Z,83.39
2022-11-14T13:01:14.456Z,83.40
2022-11-14T13:04:40.558Z,83.48
2022-11-14T13:08:19.996Z,83.55
2022-11-14T13:12:03.712Z,83.53
2022-11-14T13:15:48.832Z,83.58
2022-11-14T13:19:28.612Z,83.61
2022-11-14T13:22:49.284Z,83.60
2022-11-14T13:26:09.746Z,83.66
2022-11-14T13:29:40.371Z,83.67
2022-11-14T13:33:02.365Z,83.64
2022-11-14T13:36:56.674Z,83.58
2022-11-14T13:40:59.800Z,83.59
2022-11-14T13:44:42.654Z,83.52
2022-11-14T13:48:30.024Z,83.50
2022-11-14T13:51:53.276Z,83.51
2022-11-14T13:55:20.722Z,83.57
2022-11-14T13:58:41.671Z,83.58
2022-11-14T14:02:10.973Z,83.58
2022-11-14T14:05:49.245Z,83.60
2022-11-14T14:09:14.759Z,83.66
2022-11-14T14:13:10.617Z,83.68
2022-11-14T14:16:56.074Z,83.80
2022-11-14T14:20:31.320Z,83.85
2022-11-14T14:24:19.646Z,83.87
2022-11-14T14:28:08.660Z,83.88
2022-11-14T14:31:41.330Z,83.85
2022-11-14T14:35:20.373Z,83.77
2022-11-14T14:38:40.665Z,83.73
2022-11-14T14:42:01.376Z,83.60
2022-11-14T14:45:23.883Z,83.47
2022-11-14T14:48:44.683Z,83.30
2022-11-14T14:52:30.888Z,83.24
2022-11-14T14:55:55.804Z,83.12
2022-11-14T14:59:23.272Z,82.90
2022-11-14T15:02:44.977Z,82.85
2022-11-14T15:06:20.686Z,82.66
2022-11-14T15:09:55.932Z,82.45
2022-11-14T15:13:19.503Z,82.34
2022-11-14T15:16:42.190Z,82.21
2022-11-14T15:20:02.943Z,82.14
2022-11-14T15:23:23.166Z,82.08
2022-11-14T15:26:45.946Z,81.91
2022-11-14T15:30:19.056Z,81.79
2022-11-14T15:33:39.798Z,81.68
2022-11-14T15:37:21.035Z,81.60
2022-11-14T15:40:41.902Z,81.49
2022-11-14T15:44:02.159Z,81.51
2022-11-14T15:47:33.905Z,81.51
2022-11-14T15:50:54.121Z,81.51
2022-11-14T15:54:23.197Z,81.32
2022-11-14T15:57:45.422Z,81.20
2022-11-14T16:01:18.425Z,81.03
2022-11-14T16:04:42.910Z,80.87
2022-11-14T16:08:08.612Z,80.77
2022-11-14T16:11:29.111Z,80.92
2022-11-14T16:14:49.607Z,81.06
2022-11-14T16:18:11.021Z,81.30
2022-11-14T16:21:31.771Z,81.44
2022-11-14T16:24:53.120Z,81.41
2022-11-14T16:28:13.440Z,81.30
2022-11-14T16:31:33.652Z,81.44
2022-11-14T16:34:53.912Z,81.61
2022-11-14T16:38:14.112Z,81.64
2022-11-14T16:41:34.303Z,81.56
2022-11-14T16:45:01.869Z,81.53
2022-11-14T16:48:22.449Z,81.54
2022-11-14T16:51:48.267Z,81.59
2022-11-14T16:55:11.121Z,81.71
2022-11-14T16:58:31.062Z,81.81
2022-11-14T17:01:51.482Z,81.91
2022-11-14T17:05:12.282Z,82.00
2022-11-14T17:08:32.402Z,82.10
2022-11-14T17:11:52.319Z,82.13
2022-11-14T17:15:12.449Z,82.17
2022-11-14T17:18:38.127Z,82.25
2022-11-14T17:21:58.659Z,82.33
2022-11-14T17:25:18.875Z,82.39
2022-11-14T17:28:45.553Z,82.48
2022-11-14T17:32:06.415Z,82.56
2022-11-14T17:35:26.439Z,82.66
2022-11-14T17:38:47.021Z,82.72
2022-11-14T17:42:07.455Z,82.76
2022-11-14T17:45:27.953Z,82.85
2022-11-14T17:48:48.665Z,82.91
2022-11-14T17:52:09.175Z,82.98
2022-11-14T17:55:29.523Z,82.99
2022-11-14T17:58:51.287Z,83.00
2022-11-14T18:02:13.500Z,83.09
2022-11-14T18:05:33.769Z,83.09
2022-11-14T18:08:54.183Z,83.06
2022-11-14T18:12:15.255Z,83.05
2022-11-14T18:15:38.525Z,83.04
2022-11-14T18:18:58.769Z,83.06
2022-11-14T18:22:19.095Z,83.06
2022-11-14T18:25:39.114Z,83.09
2022-11-14T18:29:01.611Z,83.11
2022-11-14T18:32:22.090Z,83.17
2022-11-14T18:35:42.299Z,83.23
2022-11-14T18:39:02.996Z,83.25
2022-11-14T18:42:24.530Z,83.23
2022-11-14T18:45:44.737Z,83.19
2022-11-14T18:49:05.077Z,83.18
2022-11-14T18:52:25.518Z,83.21
2022-11-14T18:55:46.956Z,83.20
2022-11-14T18:59:07.707Z,83.24
2022-11-14T19:02:28.325Z,83.25
2022-11-14T19:05:48.617Z,83.21
2022-11-14T19:09:12.884Z,83.23
2022-11-14T19:12:32.931Z,83.32
2022-11-14T19:15:53.278Z,83.38
2022-11-14T19:19:13.897Z,83.40
2022-11-14T19:22:34.281Z,83.43
2022-11-14T19:25:59.234Z,83.44
2022-11-14T19:29:19.484Z,83.51
2022-11-14T19:32:39.627Z,83.55
2022-11-14T19:36:08.545Z,83.59
2022-11-14T19:39:29.274Z,83.66
2022-11-14T19:42:52.794Z,83.67
2022-11-14T19:46:14.794Z,83.69
2022-11-14T19:49:35.144Z,83.70
2022-11-14T19:52:55.453Z,83.73
2022-11-14T19:56:17.672Z,83.76
2022-11-14T19:59:38.375Z,83.73
2022-11-14T20:02:58.830Z,83.71
2022-11-14T20:06:25.742Z,83.70
2022-11-14T20:09:46.406Z,83.67
2022-11-14T20:13:06.630Z,83.63
2022-11-14T20:16:29.997Z,83.57
2022-11-14T20:19:50.260Z,83.54
2022-11-14T20:23:10.849Z,83.56
2022-11-14T20:26:31.073Z,83.59
2022-11-14T20:29:51.588Z,83.64
2022-11-14T20:33:11.787Z,83.64
2022-11-14T20:36:50.051Z,83.66
2022-11-14T20:40:15.238Z,83.68
2022-11-14T20:43:36.532Z,83.64
2022-11-14T20:46:59.260Z,83.65
2022-11-14T20:50:19.791Z,83.69
2022-11-14T20:53:42.602Z,83.79
2022-11-14T20:57:02.990Z,83.86
2022-11-14T21:00:23.464Z,83.92
2022-11-14T21:03:43.891Z,83.99
2022-11-14T21:07:07.211Z,84.04
2022-11-14T21:10:45.823Z,84.05
2022-11-14T21:14:08.353Z,84.04
2022-11-14T21:17:30.737Z,83.99
2022-11-14T21:21:09.684Z,83.96
2022-11-14T21:24:30.156Z,83.88
2022-11-14T21:27:50.955Z,83.83
2022-11-14T21:31:27.429Z,83.88
2022-11-14T21:34:47.375Z,83.94
2022-11-14T21:38:07.789Z,83.98
2022-11-14T21:41:29.289Z,83.97
2022-11-14T21:44:49.807Z,83.93
2022-11-14T21:48:10.280Z,83.90
2022-11-14T21:51:30.764Z,83.88
2022-11-14T21:54:51.209Z,83.89
2022-11-14T21:58:12.241Z,83.94
2022-11-14T22:01:51.337Z,83.96
2022-11-14T22:05:11.770Z,83.99
2022-11-14T22:08:31.723Z,83.94
2022-11-14T22:11:51.818Z,83.91
2022-11-14T22:15:12.055Z,83.91
2022-11-14T22:18:32.376Z,83.91
2022-11-14T22:21:53.574Z,83.92
2022-11-14T22:25:13.886Z,83.94
2022-11-14T22:28:33.929Z,83.92
2022-11-14T22:31:55.897Z,83.93
2022-11-14T22:35:15.790Z,83.92
2022-11-14T22:38:36.625Z,83.89
2022-11-14T22:41:56.471Z,83.89
2022-11-14T22:45:16.665Z,83.86
2022-11-14T22:48:37.636Z,83.87
2022-11-14T22:51:57.685Z,83.87
2022-11-14T22:55:18.351Z,83.85
2022-11-14T22:58:42.273Z,83.83
2022-11-14T23:02:02.475Z,83.83
2022-11-14T23:05:22.727Z,83.83
2022-11-14T23:08:44.366Z,83.81
2022-11-14T23:12:05.030Z,83.78
2022-11-14T23:15:25.253Z,83.75
2022-11-14T23:18:46.809Z,83.75
2022-11-14T23:22:07.369Z,83.77
2022-11-14T23:25:27.756Z,83.82
2022-11-14T23:28:48.583Z,83.79
2022-11-14T23:32:08.727Z,83.77
2022-11-14T23:35:28.927Z,83.73
2022-11-14T23:38:52.979Z,83.71
2022-11-14T23:42:13.504Z,83.64
2022-11-14T23:45:33.465Z,83.62
2022-11-14T23:48:53.691Z,83.62
2022-11-14T23:52:14.020Z,83.58
2022-11-14T23:55:34.799Z,83.55
2022-11-14T23:58:54.892Z,83.50
